Time;durP1;ratioP1;P1;durP2;ratioP2;P2;SDS_P1;SDS_P2;PMS_P1;PMS_P2;Temp;Humidity;BMP_temperature;BMP_pressure;BME280_temperature;BME280_humidity;BME280_pressure;Samples;Min_cycle;Max_cycle;Signal;HPM_P1;HPM_P2
2023/10/30 00:00:37;;;;;;;3.17;1.77;;;;;;;10.25;90.30;97417.94;5080424;28;20043;-81
2023/10/30 00:03:03;;;;;;;4.88;1.50;;;;;;;10.32;90.29;97423.72;5074674;28;20193;-81
2023/10/30 00:05:29;;;;;;;4.97;1.33;;;;;;;10.37;90.22;97423.69;5076715;28;20042;-81
2023/10/30 00:07:55;;;;;;;6.22;1.90;;;;;;;10.37;90.15;97416.50;5079239;28;20032;-81
2023/10/30 00:10:21;;;;;;;2.42;1.90;;;;;;;10.36;89.99;97433.56;5050440;28;20036;-81
2023/10/30 00:12:46;;;;;;;3.63;1.42;;;;;;;10.33;89.99;97428.78;5071351;28;20636;-81
2023/10/30 00:15:12;;;;;;;4.20;1.60;;;;;;;10.33;89.82;97434.09;5061761;28;20448;-81
2023/10/30 00:17:38;;;;;;;3.30;1.65;;;;;;;10.34;89.96;97440.25;5066609;28;20032;-81
2023/10/30 00:20:04;;;;;;;5.43;1.90;;;;;;;10.26;90.17;97440.84;5093038;28;20089;-81
2023/10/30 00:22:30;;;;;;;3.80;1.80;;;;;;;10.29;90.04;97445.63;5084998;28;20027;-80
2023/10/30 00:24:55;;;;;;;4.30;2.08;;;;;;;10.28;89.92;97446.72;5071207;28;20028;-81
2023/10/30 00:27:21;;;;;;;4.88;1.58;;;;;;;10.34;90.44;97458.91;5097454;27;20495;-81
2023/10/30 00:29:46;;;;;;;2.58;1.52;;;;;;;10.31;90.05;97454.94;5074935;28;20032;-81
2023/10/30 00:32:11;;;;;;;3.53;1.88;;;;;;;10.27;90.45;97474.44;5083536;28;20031;-81
2023/10/30 00:34:37;;;;;;;3.90;1.60;;;;;;;10.35;90.12;97471.97;5069366;28;20157;-82
2023/10/30 00:37:02;;;;;;;3.30;1.60;;;;;;;10.35;90.34;97474.63;5083305;28;20391;-81
2023/10/30 00:39:31;;;;;;;4.35;1.95;;;;;;;10.33;90.02;97484.78;5081109;28;20372;-81
2023/10/30 00:41:58;;;;;;;6.53;1.80;;;;;;;10.34;90.19;97480.25;5067639;28;20043;-81
2023/10/30 00:44:23;;;;;;;6.03;1.85;;;;;;;10.34;90.05;97486.38;5078794;28;20036;-81
2023/10/30 00:46:52;;;;;;;3.53;1.85;;;;;;;10.29;90.30;97478.41;5079378;28;20028;-81
2023/10/30 00:49:17;;;;;;;3.50;1.88;;;;;;;10.34;90.50;97490.91;5055679;28;20024;-81
2023/10/30 00:51:42;;;;;;;4.32;2.05;;;;;;;10.33;90.15;97492.00;5080906;28;20039;-81
2023/10/30 00:54:08;;;;;;;8.18;2.25;;;;;;;10.28;90.47;97484.84;5059320;28;20056;-81
2023/10/30 00:56:33;;;;;;;7.10;2.38;;;;;;;10.27;90.55;97509.09;5084707;28;20036;-81
2023/10/30 00:58:58;;;;;;;4.30;2.10;;;;;;;10.37;90.46;97493.84;5083708;28;20028;-81
2023/10/30 01:01:25;;;;;;;4.47;2.10;;;;;;;10.38;90.60;97497.28;5079449;28;20660;-81
2023/10/30 01:03:50;;;;;;;6.57;2.05;;;;;;;10.28;90.89;97487.50;5109805;27;20721;-81
2023/10/30 01:06:15;;;;;;;3.42;2.55;;;;;;;10.39;90.58;97504.22;5084533;28;20024;-81
2023/10/30 01:08:41;;;;;;;7.53;2.25;;;;;;;10.45;90.08;97508.44;5086894;28;20184;-81
2023/10/30 01:11:06;;;;;;;8.77;1.77;;;;;;;10.40;90.17;97511.94;5087655;28;20035;-81
2023/10/30 01:13:32;;;;;;;6.85;2.92;;;;;;;10.34;90.32;97502.38;5064478;28;20495;-81
2023/10/30 01:15:58;;;;;;;7.05;2.20;;;;;;;10.33;89.90;97498.13;5087260;28;20073;-82
2023/10/30 01:18:23;;;;;;;3.50;1.67;;;;;;;10.28;90.01;97494.72;5086175;28;20024;-81
2023/10/30 01:20:49;;;;;;;7.70;2.08;;;;;;;10.28;90.36;97498.19;5085948;28;20449;-81
2023/10/30 01:23:14;;;;;;;2.47;1.60;;;;;;;10.39;90.18;97491.69;5067754;28;20396;-81
2023/10/30 01:25:40;;;;;;;7.30;2.10;;;;;;;10.38;90.32;97484.75;5088708;28;20483;-81
2023/10/30 01:28:05;;;;;;;5.10;2.08;;;;;;;10.40;90.25;97482.59;5075628;28;20506;-81
2023/10/30 01:30:31;;;;;;;6.25;3.40;;;;;;;10.34;90.18;97483.72;5073064;28;20024;-81
2023/10/30 01:32:56;;;;;;;5.07;1.48;;;;;;;10.41;90.14;97499.41;5083427;28;20035;-81
2023/10/30 01:35:22;;;;;;;6.15;2.10;;;;;;;10.40;90.23;97503.94;5087863;28;20036;-81
2023/10/30 01:37:47;;;;;;;7.18;2.00;;;;;;;10.38;89.90;97503.41;5088661;28;20054;-81
2023/10/30 01:40:14;;;;;;;8.93;2.30;;;;;;;10.44;89.96;97510.28;5066633;28;20032;-81
2023/10/30 01:42:39;;;;;;;6.00;1.90;;;;;;;10.35;90.41;97495.19;5085295;28;20032;-81
2023/10/30 01:45:05;;;;;;;5.25;1.58;;;;;;;10.40;90.13;97516.47;5079754;28;20032;-81
2023/10/30 01:47:30;;;;;;;6.22;2.30;;;;;;;10.31;90.55;97497.59;5078351;28;20044;-81
2023/10/30 01:49:57;;;;;;;4.78;1.95;;;;;;;10.34;89.68;97491.72;5085211;28;20036;-81
2023/10/30 01:52:24;;;;;;;8.70;2.38;;;;;;;10.33;90.05;97474.13;5085517;28;20016;-82
2023/10/30 01:54:53;;;;;;;5.78;1.90;;;;;;;10.31;90.03;97484.25;5086088;28;20069;-81
2023/10/30 01:57:21;;;;;;;6.65;2.15;;;;;;;10.32;90.22;97472.53;5079720;28;20041;-81
2023/10/30 01:59:48;;;;;;;4.68;1.77;;;;;;;10.29;90.48;97480.28;5079431;28;20515;-81
2023/10/30 02:02:14;;;;;;;4.80;1.88;;;;;;;10.34;90.17;97478.38;5078171;28;20028;-81
2023/10/30 02:04:39;;;;;;;10.65;2.78;;;;;;;10.38;89.84;97479.41;5086939;28;20414;-81
2023/10/30 02:07:04;;;;;;;4.45;1.70;;;;;;;10.34;90.18;97466.91;5083253;28;20503;-81
2023/10/30 02:09:32;;;;;;;7.57;1.98;;;;;;;10.37;89.76;97474.38;5089933;28;20408;-81
2023/10/30 02:11:58;;;;;;;9.27;2.63;;;;;;;10.40;90.29;97474.59;5092358;28;20019;-81
2023/10/30 02:14:24;;;;;;;7.85;2.10;;;;;;;10.41;89.30;97472.72;5084429;28;20025;-82
2023/10/30 02:16:49;;;;;;;3.72;1.95;;;;;;;10.32;90.29;97469.88;5085997;28;20821;-82
2023/10/30 02:19:21;;;;;;;6.18;1.95;;;;;;;10.31;89.94;97473.59;5082318;28;20147;-81
2023/10/30 02:21:47;;;;;;;8.82;1.92;;;;;;;10.39;89.60;97466.88;5084459;28;20032;-82
2023/10/30 02:24:12;;;;;;;6.75;1.85;;;;;;;10.44;89.40;97475.63;5067879;28;20133;-81
2023/10/30 02:26:37;;;;;;;2.90;1.85;;;;;;;10.30;89.65;97472.03;5066701;28;20391;-82
2023/10/30 02:29:04;;;;;;;7.45;2.28;;;;;;;10.32;89.80;97477.88;5058778;28;20115;-81
2023/10/30 02:31:30;;;;;;;5.22;1.90;;;;;;;10.41;89.70;97476.19;5070561;28;20097;-81
2023/10/30 02:33:56;;;;;;;6.65;1.80;;;;;;;10.38;89.92;97492.75;5086253;28;20035;-81
2023/10/30 02:36:21;;;;;;;5.15;2.10;;;;;;;10.33;89.60;97484.00;5084097;28;20032;-81
2023/10/30 02:38:46;;;;;;;3.97;1.95;;;;;;;10.22;89.97;97463.84;5086144;28;20032;-81
2023/10/30 02:41:12;;;;;;;7.43;2.35;;;;;;;10.33;89.68;97473.34;5083559;28;20713;-81
2023/10/30 02:43:37;;;;;;;7.80;2.05;;;;;;;10.38;89.41;97491.94;5074143;28;20036;-82
2023/10/30 02:46:05;;;;;;;9.80;1.85;;;;;;;10.28;89.85;97486.72;5087398;28;20119;-82
2023/10/30 02:48:30;;;;;;;5.45;2.10;;;;;;;10.29;89.65;97486.41;5085581;28;20039;-81
2023/10/30 02:50:58;;;;;;;4.95;1.85;;;;;;;10.26;90.71;97500.34;5085403;28;20044;-81
2023/10/30 02:53:23;;;;;;;8.95;2.10;;;;;;;10.37;89.94;97501.03;5087343;28;20024;-81
2023/10/30 02:55:49;;;;;;;5.18;2.10;;;;;;;10.30;90.14;97487.22;5083131;28;20032;-81
2023/10/30 02:58:14;;;;;;;9.52;2.60;;;;;;;10.28;90.08;97498.19;5069241;28;20036;-81
2023/10/30 03:00:40;;;;;;;8.52;1.98;;;;;;;10.25;90.19;97498.72;5081676;28;20028;-81
2023/10/30 03:03:05;;;;;;;5.38;2.33;;;;;;;10.22;90.47;97475.28;5091800;27;20099;-81
2023/10/30 03:05:30;;;;;;;7.03;2.17;;;;;;;10.38;90.01;97497.28;5077320;28;20502;-81
2023/10/30 03:07:56;;;;;;;9.93;2.22;;;;;;;10.44;89.65;97496.19;5084216;28;20048;-81
2023/10/30 03:10:22;;;;;;;7.00;2.20;;;;;;;10.42;89.46;97491.09;5071669;28;20038;-81
2023/10/30 03:12:47;;;;;;;4.10;2.15;;;;;;;10.46;89.42;97497.47;5085198;28;20029;-81
2023/10/30 03:15:14;;;;;;;8.65;2.90;;;;;;;10.41;89.35;97486.88;5081687;28;20028;-81
2023/10/30 03:17:39;;;;;;;6.15;2.15;;;;;;;10.34;90.15;97483.72;5083678;28;20036;-81
2023/10/30 03:20:08;;;;;;;6.70;2.75;;;;;;;10.33;90.37;97479.44;5078876;28;20467;-82
2023/10/30 03:22:33;;;;;;;4.18;2.08;;;;;;;10.41;90.08;97491.41;5087417;28;20455;-81
2023/10/30 03:24:59;;;;;;;9.23;2.60;;;;;;;10.42;89.67;97496.44;5103334;27;20047;-82
2023/10/30 03:27:25;;;;;;;6.00;2.17;;;;;;;10.48;89.37;97505.97;5068004;28;20024;-82
2023/10/30 03:29:50;;;;;;;5.88;2.70;;;;;;;10.37;89.88;97493.03;5108083;27;20055;-82
2023/10/30 03:32:15;;;;;;;6.97;2.45;;;;;;;10.42;89.70;97500.97;5085289;28;20021;-82
2023/10/30 03:34:41;;;;;;;6.85;2.53;;;;;;;10.40;90.00;97503.13;5078398;28;20070;-81
2023/10/30 03:37:08;;;;;;;5.18;2.25;;;;;;;10.39;90.27;97493.56;5085195;28;20036;-81
2023/10/30 03:39:34;;;;;;;5.10;2.35;;;;;;;10.49;89.69;97498.78;5083134;28;20035;-81
2023/10/30 03:41:59;;;;;;;11.65;2.60;;;;;;;10.46;89.75;97483.34;5080004;28;20399;-82
2023/10/30 03:44:26;;;;;;;10.10;3.33;;;;;;;10.43;89.89;97490.03;5088768;28;20047;-81
2023/10/30 03:46:52;;;;;;;7.80;2.92;;;;;;;10.47;89.83;97492.94;5065182;28;20043;-81
2023/10/30 03:49:18;;;;;;;4.85;1.95;;;;;;;10.48;89.57;97486.53;5089555;28;20050;-82
2023/10/30 03:51:43;;;;;;;10.05;2.63;;;;;;;10.42;89.82;97483.09;5087971;28;20024;-81
2023/10/30 03:54:08;;;;;;;9.80;2.28;;;;;;;10.51;90.25;97497.44;5081662;28;20514;-81
2023/10/30 03:56:34;;;;;;;6.88;2.65;;;;;;;10.38;90.42;97481.28;5088251;28;20024;-81
2023/10/30 03:58:59;;;;;;;9.18;2.30;;;;;;;10.49;90.43;97501.44;5071566;28;20058;-81
2023/10/30 04:01:25;;;;;;;6.65;2.20;;;;;;;10.47;90.46;97503.59;5088637;28;20032;-81
2023/10/30 04:03:51;;;;;;;9.82;2.72;;;;;;;10.57;89.76;97484.84;5088852;28;20055;-82
2023/10/30 04:06:16;;;;;;;7.97;3.45;;;;;;;10.50;90.00;97493.19;5090827;28;20068;-82
2023/10/30 04:08:42;;;;;;;7.85;2.30;;;;;;;10.37;90.38;97485.84;5080030;28;20496;-82
2023/10/30 04:11:17;;;;;;;3.40;2.05;;;;;;;10.47;90.21;97495.59;5083380;28;20177;-82
2023/10/30 04:13:43;;;;;;;14.60;3.28;;;;;;;10.41;90.54;97486.06;5087018;28;20056;-82
2023/10/30 04:16:13;;;;;;;8.27;2.40;;;;;;;10.40;90.39;97487.13;5089060;28;20104;-81
2023/10/30 04:18:39;;;;;;;6.63;2.30;;;;;;;10.52;90.07;97482.22;5079855;28;20487;-82
2023/10/30 04:21:05;;;;;;;6.25;2.60;;;;;;;10.53;89.94;97505.94;5083693;28;20039;-81
2023/10/30 04:23:31;;;;;;;8.32;2.75;;;;;;;10.50;89.71;97490.53;5069629;28;20391;-81
2023/10/30 04:25:56;;;;;;;8.68;2.55;;;;;;;10.52;89.92;97490.22;5089381;28;20040;-82
2023/10/30 04:28:23;;;;;;;6.13;2.78;;;;;;;10.46;90.20;97484.13;5071163;28;20024;-81
2023/10/30 04:30:48;;;;;;;10.82;2.45;;;;;;;10.52;89.81;97492.91;5079388;28;20906;-82
2023/10/30 04:33:14;;;;;;;6.50;2.67;;;;;;;10.43;89.91;97468.72;5083408;28;20047;-81
2023/10/30 04:35:39;;;;;;;9.57;3.15;;;;;;;10.38;90.08;97471.41;5082965;28;20521;-81
2023/10/30 04:38:04;;;;;;;4.80;2.08;;;;;;;10.47;90.31;97484.94;5084850;28;20039;-81
2023/10/30 04:40:30;;;;;;;6.28;2.60;;;;;;;10.43;90.30;97481.25;5068647;28;20028;-81
2023/10/30 04:42:55;;;;;;;8.43;3.00;;;;;;;10.37;90.49;97471.69;5069753;28;20036;-82
2023/10/30 04:45:21;;;;;;;13.43;3.03;;;;;;;10.44;90.37;97494.28;5087082;28;20475;-81
2023/10/30 04:47:46;;;;;;;6.60;2.95;;;;;;;10.40;90.51;97479.13;5079840;28;20032;-82
2023/10/30 04:50:11;;;;;;;5.78;2.47;;;;;;;10.41;90.45;97472.72;5064048;28;20040;-82
2023/10/30 04:52:37;;;;;;;4.18;2.42;;;;;;;10.46;90.16;97483.34;5071105;28;20036;-82
2023/10/30 04:55:03;;;;;;;10.68;3.80;;;;;;;10.42;90.26;97498.31;5087356;28;20085;-82
2023/10/30 04:57:28;;;;;;;9.10;2.92;;;;;;;10.43;90.49;97491.91;5076076;28;20092;-82
2023/10/30 04:59:54;;;;;;;6.75;3.03;;;;;;;10.45;90.13;97493.22;5079419;28;20044;-82
2023/10/30 05:02:19;;;;;;;8.13;3.28;;;;;;;10.42;90.79;97507.13;5084686;28;20159;-81
2023/10/30 05:04:44;;;;;;;7.18;3.60;;;;;;;10.39;90.57;97504.22;5093157;27;20039;-81
2023/10/30 05:07:10;;;;;;;6.75;2.90;;;;;;;10.46;90.59;97492.13;5084016;28;20389;-81
2023/10/30 05:09:36;;;;;;;8.15;3.58;;;;;;;10.41;90.32;97500.19;5080576;28;20046;-81
2023/10/30 05:12:01;;;;;;;7.60;3.60;;;;;;;10.46;90.47;97505.47;5067462;28;20118;-82
2023/10/30 05:14:26;;;;;;;8.85;3.80;;;;;;;10.38;90.25;97479.41;5086428;28;20122;-81
2023/10/30 05:16:52;;;;;;;12.13;5.55;;;;;;;10.41;90.10;97488.72;5080293;28;20039;-82
2023/10/30 05:19:18;;;;;;;8.05;3.25;;;;;;;10.45;90.30;97487.88;5070336;28;20032;-82
2023/10/30 05:21:43;;;;;;;12.73;3.13;;;;;;;10.44;90.20;97483.63;5081125;28;20522;-82
2023/10/30 05:24:09;;;;;;;11.55;3.00;;;;;;;10.41;90.62;97473.53;5085750;28;20445;-82
2023/10/30 05:26:34;;;;;;;5.35;3.00;;;;;;;10.40;90.83;97469.25;5088416;28;20031;-81
2023/10/30 05:29:00;;;;;;;13.05;3.65;;;;;;;10.43;90.92;97473.25;5070187;28;20043;-82
2023/10/30 05:31:25;;;;;;;9.35;2.85;;;;;;;10.48;90.28;97471.31;5073764;28;20768;-82
2023/10/30 05:33:50;;;;;;;7.07;2.90;;;;;;;10.43;90.74;97467.91;5084537;28;20031;-82
2023/10/30 05:36:16;;;;;;;8.57;3.00;;;;;;;10.46;90.09;97468.13;5089137;28;20028;-82
2023/10/30 05:38:41;;;;;;;12.10;3.10;;;;;;;10.53;90.40;97483.81;5068472;28;20059;-81
2023/10/30 05:41:06;;;;;;;10.70;3.83;;;;;;;10.49;90.24;97466.78;5080969;28;21388;-82
2023/10/30 05:43:32;;;;;;;6.75;2.60;;;;;;;10.36;90.59;97457.56;5062555;28;20043;-81
2023/10/30 05:45:57;;;;;;;9.23;2.88;;;;;;;10.49;90.62;97478.25;5081494;28;20031;-82
2023/10/30 05:48:23;;;;;;;10.18;3.08;;;;;;;10.48;90.33;97476.63;5083363;28;20028;-82
2023/10/30 05:50:48;;;;;;;6.13;2.72;;;;;;;10.52;90.37;97466.22;5086078;28;20494;-81
2023/10/30 05:53:13;;;;;;;4.63;2.22;;;;;;;10.52;90.01;97468.88;5070452;28;20077;-82
2023/10/30 05:55:39;;;;;;;8.60;3.28;;;;;;;10.39;90.50;97467.69;5080915;28;20030;-82
2023/10/30 05:58:04;;;;;;;6.40;2.30;;;;;;;10.52;90.11;97488.38;5081326;28;20029;-82
2023/10/30 06:00:30;;;;;;;4.20;2.60;;;;;;;10.42;90.43;97496.44;5066119;28;20495;-81
2023/10/30 06:02:55;;;;;;;8.30;3.67;;;;;;;10.44;89.63;97491.63;5080366;28;20124;-81
2023/10/30 06:05:21;;;;;;;7.75;2.67;;;;;;;10.38;90.35;97482.06;5092075;28;20024;-81
2023/10/30 06:07:47;;;;;;;5.93;2.50;;;;;;;10.47;90.49;97498.28;5083284;28;20027;-82
2023/10/30 06:10:13;;;;;;;8.18;2.63;;;;;;;10.45;90.40;97511.91;5074528;28;20133;-81
2023/10/30 06:12:39;;;;;;;5.78;2.28;;;;;;;10.57;89.83;97513.41;5085911;28;20020;-82
2023/10/30 06:15:06;;;;;;;5.88;2.78;;;;;;;10.42;90.55;97519.66;5088535;28;20099;-81
2023/10/30 06:17:32;;;;;;;6.88;2.42;;;;;;;10.48;90.28;97523.88;5088931;28;20037;-81
2023/10/30 06:19:57;;;;;;;9.10;3.03;;;;;;;10.47;90.52;97519.59;5074201;28;20040;-81
2023/10/30 06:22:23;;;;;;;8.40;2.90;;;;;;;10.50;90.32;97514.53;5086560;28;20372;-81
2023/10/30 06:24:48;;;;;;;6.03;2.22;;;;;;;10.54;90.04;97528.91;5067229;28;20032;-81
2023/10/30 06:27:13;;;;;;;6.22;2.38;;;;;;;10.58;89.95;97529.13;5083326;28;20036;-82
2023/10/30 06:29:39;;;;;;;5.15;2.60;;;;;;;10.49;90.02;97528.13;5070386;28;20029;-82
2023/10/30 06:32:05;;;;;;;3.30;1.98;;;;;;;10.60;89.96;97537.63;5091187;28;20044;-82
2023/10/30 06:34:33;;;;;;;5.88;2.20;;;;;;;10.57;89.87;97535.56;5082827;28;20084;-82
2023/10/30 06:36:59;;;;;;;3.20;2.15;;;;;;;10.50;90.60;97521.72;5085839;28;20049;-81
2023/10/30 06:39:24;;;;;;;4.10;2.08;;;;;;;10.64;89.79;97529.88;5076090;28;20036;-81
2023/10/30 06:41:54;;;;;;;7.13;3.05;;;;;;;10.47;90.90;97533.75;5080667;28;20111;-81
2023/10/30 06:44:21;;;;;;;5.43;2.28;;;;;;;10.51;90.57;97540.13;5086491;28;20110;-82
2023/10/30 06:46:50;;;;;;;6.18;1.77;;;;;;;10.57;90.48;97546.22;5084784;28;20039;-82
2023/10/30 06:49:15;;;;;;;5.15;2.00;;;;;;;10.59;89.80;97544.06;5087430;28;20048;-81
2023/10/30 06:51:41;;;;;;;9.27;2.53;;;;;;;10.61;90.28;97533.09;5086889;28;20085;-82
2023/10/30 06:54:10;;;;;;;6.60;2.25;;;;;;;10.61;90.05;97543.78;5071452;28;20119;-82
2023/10/30 06:56:35;;;;;;;9.80;2.20;;;;;;;10.50;90.13;97535.06;5086448;28;20036;-81
2023/10/30 06:59:01;;;;;;;5.82;2.28;;;;;;;10.49;90.09;97539.59;5085720;28;20024;-81
2023/10/30 07:01:27;;;;;;;7.38;2.00;;;;;;;10.61;90.06;97547.25;5086140;28;20546;-81
2023/10/30 07:03:52;;;;;;;4.20;2.38;;;;;;;10.63;89.53;97557.63;5083371;28;20036;-81
2023/10/30 07:06:17;;;;;;;4.85;2.20;;;;;;;10.54;90.00;97555.56;5088599;28;20125;-81
2023/10/30 07:08:43;;;;;;;7.30;2.55;;;;;;;10.50;89.89;97559.06;5087028;28;20123;-81
2023/10/30 07:11:08;;;;;;;4.60;2.05;;;;;;;10.54;89.78;97568.09;5091189;28;20028;-80
2023/10/30 07:13:34;;;;;;;8.35;2.20;;;;;;;10.54;90.51;97560.91;5090858;28;20027;-82
2023/10/30 07:15:59;;;;;;;8.02;2.00;;;;;;;10.57;90.13;97571.00;5082842;28;20639;-81
2023/10/30 07:18:24;;;;;;;5.30;2.30;;;;;;;10.53;90.75;97569.97;5064262;28;20032;-81
2023/10/30 07:20:50;;;;;;;10.77;2.47;;;;;;;10.56;90.02;97565.97;5089882;28;20036;-82
2023/10/30 07:23:15;;;;;;;9.07;2.25;;;;;;;10.64;90.24;97575.25;5071155;28;20561;-81
2023/10/30 07:25:40;;;;;;;5.65;2.95;;;;;;;10.61;89.73;97581.94;5090388;28;20036;-81
2023/10/30 07:28:06;;;;;;;4.22;2.15;;;;;;;10.55;90.24;97569.69;5070992;28;20059;-81
2023/10/30 07:30:32;;;;;;;3.85;1.58;;;;;;;10.63;89.99;97577.13;5089310;28;20039;-81
2023/10/30 07:32:57;;;;;;;6.68;2.38;;;;;;;10.64;90.01;97586.69;5075286;28;20451;-82
2023/10/30 07:35:22;;;;;;;7.68;2.00;;;;;;;10.66;89.64;97589.88;5070279;28;20078;-81
2023/10/30 07:37:48;;;;;;;7.18;2.22;;;;;;;10.57;90.42;97572.09;5073801;28;20035;-82
2023/10/30 07:40:13;;;;;;;7.10;2.33;;;;;;;10.61;90.44;97573.94;5099020;28;20039;-81
2023/10/30 07:42:39;;;;;;;6.50;2.10;;;;;;;10.73;89.59;97576.22;5093303;28;20101;-81
2023/10/30 07:45:05;;;;;;;9.93;2.63;;;;;;;10.63;89.72;97552.28;5093202;28;20036;-82
2023/10/30 07:47:31;;;;;;;6.15;1.85;;;;;;;10.81;89.00;97570.28;5093232;28;20498;-82
2023/10/30 07:49:56;;;;;;;8.88;2.25;;;;;;;10.71;90.00;97565.81;5091780;28;20040;-81
2023/10/30 07:52:22;;;;;;;3.50;2.20;;;;;;;10.71;89.86;97560.50;5088591;28;20032;-81
2023/10/30 07:54:47;;;;;;;4.88;2.08;;;;;;;10.79;89.58;97559.09;5080453;28;20044;-81
2023/10/30 07:57:12;;;;;;;10.02;2.05;;;;;;;10.81;89.61;97559.63;5065280;28;20024;-81
2023/10/30 07:59:38;;;;;;;3.67;1.73;;;;;;;10.87;89.66;97563.81;5063156;28;20151;-81
2023/10/30 08:02:03;;;;;;;9.55;1.85;;;;;;;10.89;89.64;97569.69;5087490;28;20032;-81
2023/10/30 08:04:29;;;;;;;8.20;1.95;;;;;;;10.94;89.00;97559.72;5098756;28;20064;-81
2023/10/30 08:06:54;;;;;;;6.43;1.95;;;;;;;10.97;89.33;97569.84;5047279;28;20043;-81
2023/10/30 08:09:19;;;;;;;6.15;2.22;;;;;;;10.94;89.27;97564.28;5082121;28;20028;-80
2023/10/30 08:11:45;;;;;;;8.02;1.63;;;;;;;10.96;89.17;97572.81;5071039;28;20036;-81
2023/10/30 08:14:10;;;;;;;8.75;2.28;;;;;;;11.01;89.30;97562.06;5084850;28;20012;-80
2023/10/30 08:16:35;;;;;;;7.60;1.88;;;;;;;11.04;88.82;97561.50;5081039;28;20069;-81
2023/10/30 08:19:01;;;;;;;5.43;1.70;;;;;;;11.13;88.73;97554.47;5081570;28;20379;-81
2023/10/30 08:21:27;;;;;;;6.53;2.53;;;;;;;11.15;88.42;97560.34;5081729;28;20369;-81
2023/10/30 08:23:52;;;;;;;11.82;2.08;;;;;;;11.20;88.35;97557.63;5087938;28;20520;-81
2023/10/30 08:26:19;;;;;;;5.47;2.20;;;;;;;11.17;88.93;97558.16;5071473;28;20455;-81
2023/10/30 08:28:45;;;;;;;7.25;1.95;;;;;;;11.29;88.41;97561.25;5078771;28;20070;-81
2023/10/30 08:31:11;;;;;;;10.25;2.05;;;;;;;11.33;88.28;97552.38;5087508;28;20024;-81
2023/10/30 08:33:36;;;;;;;3.50;2.20;;;;;;;11.33;88.36;97562.28;5087518;28;20028;-81
2023/10/30 08:36:02;;;;;;;3.08;1.73;;;;;;;11.37;88.01;97551.81;5082897;28;20516;-81
2023/10/30 08:38:27;;;;;;;3.20;1.88;;;;;;;11.28;88.41;97547.09;5082905;28;20032;-81
2023/10/30 08:40:53;;;;;;;3.60;2.15;;;;;;;11.32;88.44;97552.66;5057099;28;20135;-81
2023/10/30 08:43:18;;;;;;;9.60;1.98;;;;;;;11.38;88.32;97570.22;5057769;28;20063;-81
2023/10/30 08:45:43;;;;;;;5.78;1.67;;;;;;;11.40;88.08;97570.72;5071342;28;20027;-81
2023/10/30 08:48:12;;;;;;;8.43;2.00;;;;;;;11.32;88.12;97560.69;5090017;28;20039;-82
2023/10/30 08:50:38;;;;;;;7.90;1.98;;;;;;;11.33;87.49;97559.63;5071749;28;20078;-81
2023/10/30 08:53:03;;;;;;;6.07;1.83;;;;;;;11.33;87.48;97562.28;5071407;28;20032;-81
2023/10/30 08:55:28;;;;;;;3.80;1.92;;;;;;;11.50;87.06;97569.81;5067361;28;20024;-80
2023/10/30 08:57:54;;;;;;;8.57;2.15;;;;;;;11.46;87.41;97561.59;5091548;28;20028;-81
2023/10/30 09:00:19;;;;;;;5.40;1.55;;;;;;;11.46;86.96;97561.59;5071785;28;20028;-82
2023/10/30 09:02:45;;;;;;;6.10;2.00;;;;;;;11.43;87.03;97570.16;5080494;28;20024;-81
2023/10/30 09:05:11;;;;;;;5.35;1.90;;;;;;;11.50;86.85;97565.28;5083445;28;20024;-81
2023/10/30 09:07:36;;;;;;;3.78;1.70;;;;;;;11.56;86.81;97577.50;5084740;28;20111;-81
2023/10/30 09:10:03;;;;;;;8.95;2.30;;;;;;;11.60;86.63;97575.06;5092663;28;20023;-81
2023/10/30 09:12:28;;;;;;;6.30;1.77;;;;;;;11.61;86.19;97582.78;5092781;28;20107;-81
2023/10/30 09:14:53;;;;;;;9.00;1.92;;;;;;;11.61;86.53;97585.47;5091460;28;20124;-81
2023/10/30 09:17:20;;;;;;;3.00;1.58;;;;;;;11.67;86.04;97587.03;5095039;28;20071;-81
2023/10/30 09:19:45;;;;;;;6.60;2.00;;;;;;;11.64;86.33;97576.84;5091398;28;20028;-81
2023/10/30 09:22:11;;;;;;;5.60;1.42;;;;;;;11.67;86.14;97583.53;5084443;28;20082;-81
2023/10/30 09:24:36;;;;;;;3.58;1.45;;;;;;;11.65;86.09;97572.31;5090320;28;20028;-81
2023/10/30 09:27:02;;;;;;;6.07;1.52;;;;;;;11.63;86.23;97577.16;5088774;28;20024;-81
2023/10/30 09:29:27;;;;;;;3.30;1.50;;;;;;;11.74;85.52;97568.75;5073589;28;20484;-81
2023/10/30 09:31:53;;;;;;;6.55;1.30;;;;;;;11.74;85.83;97568.75;5090784;28;20062;-81
2023/10/30 09:34:19;;;;;;;4.07;1.70;;;;;;;11.68;86.07;97569.09;5090419;28;20062;-81
2023/10/30 09:36:44;;;;;;;6.68;2.30;;;;;;;11.63;85.95;97564.59;5071135;28;20069;-81
2023/10/30 09:39:09;;;;;;;3.65;1.63;;;;;;;11.65;85.98;97554.41;5090330;28;20024;-82
2023/10/30 09:41:43;;;;;;;5.80;1.50;;;;;;;11.67;85.54;97557.63;5057257;28;20028;-81
2023/10/30 09:44:10;;;;;;;5.95;1.90;;;;;;;11.69;85.91;97558.13;5072933;28;20088;-81
2023/10/30 09:46:38;;;;;;;5.28;1.50;;;;;;;11.70;85.18;97561.59;5093398;28;20046;-82
2023/10/30 09:49:05;;;;;;;3.13;1.77;;;;;;;11.70;85.55;97562.41;5094569;28;20035;-82
2023/10/30 09:51:31;;;;;;;2.22;1.20;;;;;;;11.81;85.29;97566.53;5095909;28;20035;-81
2023/10/30 09:54:01;;;;;;;6.18;1.45;;;;;;;11.74;85.34;97558.06;5094114;28;20117;-81
2023/10/30 09:56:26;;;;;;;4.18;1.27;;;;;;;11.80;85.08;97562.25;5095008;28;20032;-81
2023/10/30 09:58:52;;;;;;;3.80;1.35;;;;;;;11.90;85.12;97561.34;5093357;28;20039;-81
2023/10/30 10:01:20;;;;;;;2.35;1.15;;;;;;;11.92;84.89;97559.16;5083069;28;20040;-81
2023/10/30 10:03:46;;;;;;;5.35;1.50;;;;;;;11.91;85.26;97562.91;5093814;28;20504;-81
2023/10/30 10:06:11;;;;;;;5.10;1.25;;;;;;;11.92;85.20;97559.16;5070473;28;20032;-81
2023/10/30 10:08:38;;;;;;;3.80;0.95;;;;;;;11.82;85.42;97546.72;5090893;28;20032;-81
2023/10/30 10:11:05;;;;;;;3.08;1.17;;;;;;;11.91;85.07;97549.53;5080258;28;20040;-81
2023/10/30 10:13:33;;;;;;;3.38;0.90;;;;;;;11.91;85.59;97536.97;5096188;28;20016;-81
2023/10/30 10:16:00;;;;;;;3.65;1.25;;;;;;;11.97;85.53;97551.88;5090384;28;20024;-81
2023/10/30 10:18:33;;;;;;;5.05;1.10;;;;;;;11.98;85.35;97534.75;5082537;28;20036;-81
2023/10/30 10:21:00;;;;;;;1.95;0.75;;;;;;;11.95;85.38;97529.16;5083394;28;20460;-81
2023/10/30 10:23:33;;;;;;;2.15;0.77;;;;;;;11.97;85.45;97541.16;5084020;28;20110;-81
2023/10/30 10:26:04;;;;;;;2.22;0.80;;;;;;;11.99;85.27;97549.69;5107934;27;20051;-81
2023/10/30 10:28:30;;;;;;;3.47;0.80;;;;;;;12.04;85.02;97557.66;5093520;28;20089;-81
2023/10/30 10:30:56;;;;;;;1.13;0.80;;;;;;;12.01;85.12;97541.41;5095407;28;20036;-81
2023/10/30 10:33:22;;;;;;;3.22;0.70;;;;;;;12.08;85.05;97547.16;5061252;28;20026;-82
2023/10/30 10:35:53;;;;;;;2.40;0.82;;;;;;;12.00;84.95;97532.56;5097064;28;20081;-82
2023/10/30 10:38:19;;;;;;;2.92;1.17;;;;;;;12.05;85.06;97545.09;5092413;28;20023;-81
2023/10/30 10:40:46;;;;;;;1.25;0.80;;;;;;;12.08;85.31;97541.03;5089128;28;20020;-82
2023/10/30 10:43:14;;;;;;;2.08;0.75;;;;;;;12.01;85.54;97530.72;5097599;28;20019;-81
2023/10/30 10:45:41;;;;;;;1.45;0.75;;;;;;;12.00;85.44;97513.84;5086004;28;20063;-81
2023/10/30 10:48:07;;;;;;;1.85;0.82;;;;;;;12.05;85.49;97515.66;5082199;28;20152;-81
2023/10/30 10:50:34;;;;;;;1.88;0.60;;;;;;;12.06;85.47;97513.78;5097028;28;20120;-81
2023/10/30 10:53:03;;;;;;;1.40;0.90;;;;;;;12.01;85.17;97504.75;5089107;28;20015;-81
2023/10/30 10:55:30;;;;;;;5.10;0.82;;;;;;;12.00;85.33;97513.84;5091387;28;20546;-81
2023/10/30 10:58:07;;;;;;;1.55;0.63;;;;;;;11.99;85.80;97512.25;5091500;28;20024;-81
2023/10/30 11:00:37;;;;;;;3.33;0.60;;;;;;;12.00;85.72;97519.22;5086542;28;20372;-81
2023/10/30 11:03:06;;;;;;;2.22;1.00;;;;;;;11.94;85.77;97503.53;5081609;28;20054;-81
2023/10/30 11:05:34;;;;;;;1.73;0.80;;;;;;;12.10;85.73;97512.91;5090799;28;20020;-81
2023/10/30 11:08:14;;;;;;;1.75;0.60;;;;;;;12.13;85.78;97508.84;5092814;28;20055;-81
2023/10/30 11:10:46;;;;;;;3.17;0.88;;;;;;;12.23;85.32;97506.03;5086245;28;20024;-82
2023/10/30 11:13:24;;;;;;;1.08;0.50;;;;;;;12.45;84.69;97514.25;5091691;28;20046;-81
2023/10/30 11:15:56;;;;;;;1.85;0.60;;;;;;;12.62;84.38;97517.16;5089098;28;20093;-81
2023/10/30 11:18:24;;;;;;;2.08;0.73;;;;;;;12.88;83.68;97507.59;5086042;28;20020;-80
2023/10/30 11:21:15;;;;;;;0.60;0.60;;;;;;;13.01;83.19;97509.50;5085868;28;20062;-81
2023/10/30 11:23:56;;;;;;;4.18;0.80;;;;;;;13.02;82.36;97513.75;5088625;28;20036;-81
2023/10/30 11:26:36;;;;;;;1.33;0.80;;;;;;;13.02;82.41;97510.31;5087639;28;20028;-81